createdAt,value
2022-09-13T00:00:43.759Z,1010.0
2022-09-13T00:05:44.031Z,1009.9
2022-09-13T00:10:44.348Z,1009.9
2022-09-13T00:15:44.674Z,1009.8
2022-09-13T00:20:45.027Z,1009.8
2022-09-13T00:30:45.663Z,1009.7
2022-09-13T00:35:46.025Z,1009.7
2022-09-13T00:40:46.357Z,1009.6
2022-09-13T00:45:46.754Z,1009.5
2022-09-13T00:50:47.045Z,1009.5
2022-09-13T00:55:47.357Z,1009.5
2022-09-13T01:00:47.856Z,1009.4
2022-09-13T01:05:48.089Z,1009.4
2022-09-13T01:10:48.305Z,1009.4
2022-09-13T01:15:48.632Z,1009.4
2022-09-13T01:20:49.010Z,1009.4
2022-09-13T01:25:49.251Z,1009.4
2022-09-13T01:30:49.591Z,1009.4
2022-09-13T01:35:49.892Z,1009.5
2022-09-13T01:40:50.218Z,1009.5
2022-09-13T01:45:50.613Z,1009.4
2022-09-13T01:50:50.820Z,1009.3
2022-09-13T01:55:53.165Z,1009.4
2022-09-13T02:00:51.547Z,1009.5
2022-09-13T02:10:52.106Z,1009.6
2022-09-13T02:15:52.439Z,1009.5
2022-09-13T02:20:52.725Z,1009.5
2022-09-13T02:25:53.071Z,1009.5
2022-09-13T02:30:53.367Z,1009.6
2022-09-13T02:35:53.723Z,1009.6
2022-09-13T02:40:54.071Z,1009.6
2022-09-13T02:45:54.411Z,1009.6
2022-09-13T02:50:54.673Z,1009.7
2022-09-13T02:55:55.007Z,1009.7
2022-09-13T03:00:55.413Z,1009.7
2022-09-13T03:05:55.670Z,1009.8
2022-09-13T03:10:55.988Z,1009.8
2022-09-13T03:15:56.338Z,1009.8
2022-09-13T03:20:56.659Z,1009.7
2022-09-13T03:25:56.975Z,1009.7
2022-09-13T03:30:57.329Z,1009.8
2022-09-13T03:35:57.750Z,1009.8
2022-09-13T03:40:57.988Z,1009.8
2022-09-13T03:45:58.404Z,1009.8
2022-09-13T03:50:58.660Z,1009.8
2022-09-13T03:55:58.971Z,1009.8
2022-09-13T04:05:59.577Z,1009.9
2022-09-13T04:10:59.874Z,1010.0
2022-09-13T04:16:00.264Z,1010.1
2022-09-13T04:21:00.557Z,1010.1
2022-09-13T04:26:00.912Z,1010.1
2022-09-13T04:31:01.764Z,1010.1
2022-09-13T04:36:01.600Z,1010.1
2022-09-13T04:41:01.948Z,1010.1
2022-09-13T04:46:02.360Z,1010.1
2022-09-13T04:51:02.628Z,1010.0
2022-09-13T04:56:02.977Z,1010.0
2022-09-13T05:01:03.420Z,1010.0
2022-09-13T05:06:03.618Z,1010.0
2022-09-13T05:11:04.039Z,1010.0
2022-09-13T05:16:04.416Z,1010.1
2022-09-13T05:21:04.610Z,1010.1
2022-09-13T05:26:04.924Z,1010.1
2022-09-13T05:31:05.296Z,1010.1
2022-09-13T05:36:05.636Z,1010.1
2022-09-13T05:41:05.905Z,1010.1
2022-09-13T05:46:06.283Z,1010.1
2022-09-13T05:51:06.550Z,1010.1
2022-09-13T05:56:06.895Z,1010.2
2022-09-13T06:01:07.209Z,1010.2
2022-09-13T06:06:07.530Z,1010.1
2022-09-13T06:11:07.844Z,1010.1
2022-09-13T06:16:08.219Z,1010.1
2022-09-13T06:21:10.602Z,1010.1
2022-09-13T06:26:08.892Z,1010.0
2022-09-13T06:31:09.342Z,1010.1
2022-09-13T06:36:09.589Z,1010.0
2022-09-13T06:41:09.961Z,1009.8
2022-09-13T06:51:10.590Z,1009.8
2022-09-13T06:56:10.901Z,1009.8
2022-09-13T07:01:11.346Z,1009.7
2022-09-13T07:06:11.575Z,1009.7
2022-09-13T07:11:11.857Z,1009.8
2022-09-13T07:16:12.205Z,1009.7
2022-09-13T07:21:12.496Z,1009.6
2022-09-13T07:26:12.842Z,1009.6
2022-09-13T07:31:13.229Z,1009.7
2022-09-13T07:36:13.528Z,1009.7
2022-09-13T07:41:16.371Z,1009.8
2022-09-13T07:46:14.399Z,1009.7
2022-09-13T07:51:14.548Z,1009.6
2022-09-13T07:56:16.846Z,1009.4
2022-09-13T08:01:17.177Z,1009.4
2022-09-13T08:06:15.461Z,1009.4
2022-09-13T08:11:15.640Z,1009.4
2022-09-13T08:16:15.931Z,1009.5
2022-09-13T08:21:18.696Z,1009.7
2022-09-13T08:26:16.426Z,1009.9
2022-09-13T08:31:16.724Z,1009.8
2022-09-13T08:36:16.979Z,1009.9
2022-09-13T08:41:17.243Z,1009.8
2022-09-13T08:46:17.567Z,1009.9
2022-09-13T08:56:18.065Z,1010.0
2022-09-13T09:01:18.386Z,1010.2
2022-09-13T09:06:18.638Z,1010.3
2022-09-13T09:11:18.922Z,1010.4
2022-09-13T09:16:19.331Z,1010.3
2022-09-13T09:21:19.547Z,1010.3
2022-09-13T09:26:19.871Z,1010.3
2022-09-13T09:31:20.272Z,1010.3
2022-09-13T09:36:20.496Z,1010.3
2022-09-13T09:41:20.829Z,1010.3
2022-09-13T09:46:21.300Z,1010.2
2022-09-13T09:51:25.442Z,1010.2
2022-09-13T09:56:21.798Z,1010.2
2022-09-13T10:01:22.123Z,1010.3
2022-09-13T10:06:22.473Z,1010.3
2022-09-13T10:11:22.693Z,1010.3
2022-09-13T10:16:23.087Z,1010.4
2022-09-13T10:21:23.363Z,1010.4
2022-09-13T10:31:24.041Z,1010.4
2022-09-13T10:36:48.272Z,1010.5
2022-09-13T10:41:24.653Z,1010.6
2022-09-13T10:46:25.000Z,1010.5
2022-09-13T10:51:25.334Z,1010.5
2022-09-13T10:56:25.933Z,1010.5
2022-09-13T11:06:26.227Z,1010.6
2022-09-13T11:11:26.541Z,1010.8
2022-09-13T11:16:26.894Z,1010.8
2022-09-13T11:21:27.185Z,1010.8
2022-09-13T11:26:27.494Z,1010.7
2022-09-13T11:31:27.868Z,1010.6
2022-09-13T11:36:28.118Z,1010.7
2022-09-13T11:41:28.420Z,1010.8
2022-09-13T11:46:28.741Z,1010.7
2022-09-13T11:51:29.046Z,1010.7
2022-09-13T11:56:29.365Z,1010.6
2022-09-13T12:01:29.629Z,1010.6
2022-09-13T12:06:29.942Z,1010.6
2022-09-13T12:11:30.233Z,1010.5
2022-09-13T12:16:35.447Z,1010.5
2022-09-13T12:21:30.841Z,1010.6
2022-09-13T12:26:31.128Z,1010.5
2022-09-13T12:31:31.474Z,1010.4
2022-09-13T12:36:31.753Z,1010.4
2022-09-13T12:41:32.019Z,1010.4
2022-09-13T12:46:32.310Z,1010.4
2022-09-13T12:51:32.592Z,1010.4
2022-09-13T12:56:32.904Z,1010.4
2022-09-13T13:01:33.387Z,1010.3
2022-09-13T13:11:33.839Z,1010.3
2022-09-13T13:16:34.241Z,1010.3
2022-09-13T13:21:34.435Z,1010.2
2022-09-13T13:26:34.747Z,1010.2
2022-09-13T13:31:35.145Z,1010.2
2022-09-13T13:36:35.446Z,1010.2
2022-09-13T13:41:35.777Z,1010.1
2022-09-13T13:46:37.100Z,1010.0
2022-09-13T13:51:36.492Z,1010.0
2022-09-13T13:56:36.849Z,1010.0
2022-09-13T14:06:40.078Z,1010.0
2022-09-13T14:11:37.927Z,1009.9
2022-09-13T14:16:40.314Z,1009.9
2022-09-13T14:21:40.660Z,1009.8
2022-09-13T14:26:41.115Z,1009.8
2022-09-13T14:31:39.401Z,1009.8
2022-09-13T14:36:39.803Z,1009.8
2022-09-13T14:41:40.033Z,1009.7
2022-09-13T14:46:40.498Z,1009.7
2022-09-13T14:51:40.711Z,1009.7
2022-09-13T15:01:43.340Z,1009.7
2022-09-13T15:06:41.635Z,1009.6
2022-09-13T15:11:41.955Z,1009.6
2022-09-13T15:26:42.845Z,1009.3
2022-09-13T15:31:42.993Z,1009.1
2022-09-13T15:36:43.338Z,1009.0
2022-09-13T15:41:43.488Z,1009.0
2022-09-13T15:46:43.964Z,1009.0
2022-09-13T15:51:43.973Z,1009.0
2022-09-13T16:01:44.625Z,1008.7
2022-09-13T16:06:45.686Z,1008.8
2022-09-13T16:11:45.050Z,1008.8
2022-09-13T16:16:45.603Z,1008.8
2022-09-13T16:21:45.730Z,1008.7
2022-09-13T16:26:45.973Z,1008.7
2022-09-13T16:31:46.280Z,1008.5
2022-09-13T16:36:50.528Z,1008.5
2022-09-13T16:41:46.756Z,1008.6
2022-09-13T16:46:49.624Z,1008.6
2022-09-13T16:51:47.280Z,1008.8
2022-09-13T16:56:47.504Z,1008.6
2022-09-13T17:01:47.881Z,1008.6
2022-09-13T17:06:47.945Z,1008.5
2022-09-13T17:11:48.209Z,1008.4
2022-09-13T17:16:48.422Z,1008.5
2022-09-13T17:21:48.656Z,1008.5
2022-09-13T17:26:48.876Z,1008.5
2022-09-13T17:31:49.154Z,1008.5
2022-09-13T17:36:51.288Z,1008.4
2022-09-13T17:41:49.659Z,1008.3
2022-09-13T17:46:49.821Z,1008.3
2022-09-13T17:51:50.033Z,1008.4
2022-09-13T17:56:50.149Z,1008.4
2022-09-13T18:01:50.496Z,1008.3
2022-09-13T18:06:50.615Z,1008.2
2022-09-13T18:11:50.835Z,1008.3
2022-09-13T18:16:53.160Z,1008.2
2022-09-13T18:21:51.301Z,1008.3
2022-09-13T18:26:51.544Z,1008.4
2022-09-13T18:31:51.802Z,1008.3
2022-09-13T18:36:51.977Z,1008.4
2022-09-13T18:41:52.170Z,1008.4
2022-09-13T18:46:52.470Z,1008.5
2022-09-13T18:51:52.647Z,1008.5
2022-09-13T18:56:54.835Z,1008.6
2022-09-13T19:01:53.196Z,1008.6
2022-09-13T19:06:53.251Z,1008.5
2022-09-13T19:11:53.498Z,1008.5
2022-09-13T19:21:53.852Z,1008.5
2022-09-13T19:26:54.121Z,1008.6
2022-09-13T19:36:54.563Z,1008.5
2022-09-13T19:41:54.717Z,1008.5
2022-09-13T19:47:23.554Z,1008.5
2022-09-13T19:51:55.129Z,1008.5
2022-09-13T19:56:55.339Z,1008.5
2022-09-13T20:01:55.587Z,1008.5
2022-09-13T20:06:55.715Z,1008.6
2022-09-13T20:11:57.997Z,1008.6
2022-09-13T20:16:56.147Z,1008.6
2022-09-13T20:21:56.318Z,1008.6
2022-09-13T20:26:56.502Z,1008.6
2022-09-13T20:31:56.665Z,1008.6
2022-09-13T20:41:56.955Z,1008.7
2022-09-13T20:46:57.162Z,1008.8
2022-09-13T20:51:57.351Z,1008.8
2022-09-13T20:56:57.564Z,1008.8
2022-09-13T21:01:57.752Z,1008.8
2022-09-13T21:06:57.861Z,1008.8
2022-09-13T21:12:00.092Z,1008.7
2022-09-13T21:16:58.274Z,1008.6
2022-09-13T21:21:58.447Z,1008.6
2022-09-13T21:26:58.678Z,1008.6
2022-09-13T21:31:58.836Z,1008.5
2022-09-13T21:36:59.036Z,1008.5
2022-09-13T21:41:59.216Z,1008.4
2022-09-13T21:46:59.428Z,1008.5
2022-09-13T21:52:01.666Z,1008.6
2022-09-13T21:57:01.897Z,1008.6
2022-09-13T22:02:02.144Z,1008.6
2022-09-13T22:07:00.329Z,1008.4
2022-09-13T22:17:02.816Z,1008.4
2022-09-13T22:22:02.979Z,1008.4
2022-09-13T22:27:01.231Z,1008.4
2022-09-13T22:32:01.387Z,1008.4
2022-09-13T22:37:01.590Z,1008.5
2022-09-13T22:42:01.773Z,1008.4
2022-09-13T22:47:01.975Z,1008.5
2022-09-13T22:52:02.215Z,1008.4
2022-09-13T22:57:02.425Z,1008.4
2022-09-13T23:02:02.690Z,1008.4
2022-09-13T23:07:02.900Z,1008.3
2022-09-13T23:12:03.152Z,1008.3
2022-09-13T23:17:03.447Z,1008.3
2022-09-13T23:22:03.568Z,1008.2
2022-09-13T23:27:03.810Z,1008.1
2022-09-13T23:32:04.035Z,1008.0
2022-09-13T23:37:04.166Z,1008.0
2022-09-13T23:42:04.382Z,1008.0
2022-09-13T23:47:04.572Z,1007.9
2022-09-13T23:52:08.762Z,1007.9
2022-09-13T23:57:05.003Z,1007.9
